SBMTSBGR

Guest
Details From SBMT - MARTE
To SBGR - Sao Paulo - Guarulhos
Flight Number -
Tags decoded
Created
Modified
Stats Distance 10 nm / 19 km
Max Altitude 0 ft / 0 m
Waypoints 2
Social Downloads 0
Likes 0
Share VATSIM

Download

Looking for another format? Having issues loading an existing format? Contact us
Advertisement - Login to hide

Notes

Requested: SBMT SDNI SBGR

Route

SBMT SBGR

ID Type Via Altitude Latitude Longitude Leg Dist Tot Dist Heading (true) Name
O SBMT APT - 0 ft / 0 m -23.50912˚ -46.63775˚ - 0 nm - MARTE
O SBGR APT - 0 ft / 0 m -23.43233˚ -46.46968˚ 10 nm 10 nm 64° / 63° Sao Paulo - Guarulhos

Altitude Profile

Advertisement - Login to hide

SBMT

Details ICAO SBMT
Name MARTE
Region Brazil
Timezone America/Sao_Paulo (UTC-3.0)
Stats Elevation 2,368 ft / 722 m (AMSL)
Location -23.509120° -46.637754°
Runways 1
Magnetic Variation 21.378° W

METAR

SBMT 211600Z 04004KT 330V120 CAVOK 19/04 Q1019

Decode

TAF

Not found

Departure Runways

ID Width Length Bearing (true) Bearing (mag) Surface Threshold Offset Overrun Length
12 148 ft / 45 m 5,241 ft / 1,597 m 100.34° 121.72° Asphalt 985 ft / 300 m 0 ft / 0 m
30 148 ft / 45 m 5,241 ft / 1,597 m 280.33° 301.71° Asphalt 490 ft / 149 m 0 ft / 0 m

SBGR

Details ICAO SBGR (GRU)
Name Sao Paulo - Guarulhos
Region Brazil
Timezone America/Sao_Paulo (UTC-3.0)
Stats Elevation 2,459 ft / 750 m (AMSL)
Location -23.432333° -46.469675°
Runways 2
Magnetic Variation 21.465° W

METAR

SBGR 211600Z 15004KT 050V200 CAVOK 18/08 Q1019

Decode

TAF

TAF SBGR 211005Z 2112/2218 00000KT CAVOK TN08/2208Z TX23/2217Z BECMG 2113/2115 30005KT BECMG 2118/2120 16005KT BECMG 2122/2124 08005KT BECMG 2203/2205 05005KT BECMG 2213/2215 33005KT RMK PGN

Decode

Destination Runways

ID Width Length Bearing (true) Bearing (mag) Surface Threshold Offset Overrun Length
09L 148 ft / 45 m 12,676 ft / 3,864 m 73.61° 95.08° Asphalt 495 ft / 151 m 0 ft / 0 m
09R 148 ft / 45 m 9,950 ft / 3,033 m 73.60° 95.07° Asphalt 0 ft / 0 m 197 ft / 60 m
27L 148 ft / 45 m 9,950 ft / 3,033 m 253.59° 275.06° Asphalt 0 ft / 0 m 197 ft / 60 m
27R 148 ft / 45 m 12,676 ft / 3,864 m 253.60° 275.07° Asphalt 197 ft / 60 m 0 ft / 0 m

Approach Navaids

Runway Type Ident Frequency Range Bearing (true) Bearing (mag) Slope Elevation
09L Localiser IUC 110.70 MHz 18 nm / 33 km 73.64° 95.11° - 2,459 ft / 750 m (AMSL)
09L Glidescope IUC 110.70 MHz 10 nm / 19 km 73.61° 95.07° 2.97° 2,459 ft / 750 m (AMSL)
09R Localiser IGR 111.50 MHz 18 nm / 33 km 73.67° 95.13° - 2,459 ft / 750 m (AMSL)
09R Glidescope IGR 111.50 MHz 10 nm / 19 km 73.60° 95.06° 2.92° 2,459 ft / 750 m (AMSL)
27L Localiser IBC 111.10 MHz 18 nm / 33 km 253.56° 275.03° - 2,459 ft / 750 m (AMSL)
27L Glidescope IBC 111.10 MHz 10 nm / 19 km 253.60° 275.06° 3.00° 2,459 ft / 750 m (AMSL)
27R Localiser IGS 111.90 MHz 18 nm / 33 km 253.54° 275.01° - 2,459 ft / 750 m (AMSL)
27R Glidescope IGS 111.90 MHz 10 nm / 19 km 253.60° 275.07° 3.00° 2,459 ft / 750 m (AMSL)

Popular Alternatives